Time,TemperatureF,DewpointF,PressureIn,WindDirection,WindDirectionDegrees,WindSpeedMPH,WindSpeedGustMPH,Humidity,HourlyPrecipIn,Conditions,Clouds,dailyrainin,SolarRadiationWatts/m^2,SoftwareType,DateUTC
2013-05-18 00:03:00,69.0,63.0,-100.00,South,179,2.0,5.0,81,0.00,,,0.00,0.000000,,2013-05-18 04:03:00,
2013-05-18 00:12:00,69.0,63.0,-100.00,South,179,2.0,5.0,81,0.00,,,0.00,0.000000,,2013-05-18 04:12:00,
2013-05-18 00:33:00,67.0,63.0,-100.00,SE,143,2.0,4.0,86,0.00,,,0.00,0.000000,,2013-05-18 04:33:00,
2013-05-18 00:43:00,67.0,63.0,-100.00,SE,143,2.0,4.0,86,0.00,,,0.00,0.000000,,2013-05-18 04:43:00,
2013-05-18 00:53:00,67.0,63.0,-100.00,SE,143,2.0,4.0,86,0.00,,,0.00,0.000000,,2013-05-18 04:53:00,
2013-05-18 01:02:00,67.0,63.0,-100.00,SE,143,2.0,4.0,86,0.00,,,0.00,0.000000,,2013-05-18 05:02:00,
2013-05-18 01:13:00,67.0,63.0,-100.00,SE,143,2.0,4.0,86,0.00,,,0.00,0.000000,,2013-05-18 05:13:00,
2013-05-18 01:32:00,65.0,61.0,-100.00,NE,56,3.0,5.0,86,0.00,,,0.00,0.000000,,2013-05-18 05:32:00,
2013-05-18 01:42:00,65.0,61.0,-100.00,NE,56,3.0,5.0,86,0.00,,,0.00,0.000000,,2013-05-18 05:42:00,
2013-05-18 01:52:00,65.0,61.0,-100.00,NE,56,3.0,5.0,86,0.00,,,0.00,0.000000,,2013-05-18 05:52:00,
2013-05-18 02:02:00,65.0,61.0,-100.00,NE,56,3.0,5.0,86,0.00,,,0.00,0.000000,,2013-05-18 06:02:00,
2013-05-18 02:11:00,65.0,61.0,-100.00,NE,56,3.0,5.0,86,0.00,,,0.00,0.000000,,2013-05-18 06:11:00,
2013-05-18 02:42:00,65.0,60.0,-100.00,SE,140,3.0,4.0,84,0.00,,,0.00,0.000000,,2013-05-18 06:42:00,
2013-05-18 02:52:00,65.0,60.0,-100.00,SE,140,3.0,4.0,84,0.00,,,0.00,0.000000,,2013-05-18 06:52:00,
2013-05-18 03:01:00,65.0,60.0,-100.00,SE,140,3.0,4.0,84,0.00,,,0.00,0.000000,,2013-05-18 07:01:00,
2013-05-18 03:12:00,65.0,60.0,-100.00,SE,140,3.0,4.0,84,0.00,,,0.00,0.000000,,2013-05-18 07:12:00,
2013-05-18 03:43:00,64.0,60.0,-100.00,ESE,119,3.0,4.0,87,0.00,,,0.00,0.000000,,2013-05-18 07:43:00,
2013-05-18 03:53:00,64.0,60.0,-100.00,ESE,119,3.0,4.0,87,0.00,,,0.00,0.000000,,2013-05-18 07:53:00,
2013-05-18 04:02:00,64.0,60.0,-100.00,ESE,119,3.0,4.0,87,0.00,,,0.00,0.000000,,2013-05-18 08:02:00,
2013-05-18 04:11:00,64.0,60.0,-100.00,ESE,119,3.0,4.0,87,0.00,,,0.00,0.000000,,2013-05-18 08:11:00,
2013-05-18 04:42:00,63.0,60.0,-100.00,SE,124,2.0,4.0,89,0.00,,,0.00,0.000000,,2013-05-18 08:42:00,
2013-05-18 04:52:00,63.0,60.0,-100.00,SE,124,2.0,4.0,89,0.00,,,0.00,0.000000,,2013-05-18 08:52:00,
2013-05-18 05:02:00,63.0,60.0,-100.00,SE,124,2.0,4.0,89,0.00,,,0.00,0.000000,,2013-05-18 09:02:00,
2013-05-18 05:12:00,63.0,60.0,-100.00,SE,124,2.0,4.0,89,0.00,,,0.00,0.000000,,2013-05-18 09:12:00,
2013-05-18 05:43:00,64.0,62.0,-100.00,SSE,147,2.0,4.0,93,0.00,,,0.00,0.000000,,2013-05-18 09:43:00,
2013-05-18 05:53:00,64.0,62.0,-100.00,SSE,147,2.0,4.0,93,0.00,,,0.00,0.000000,,2013-05-18 09:53:00,
2013-05-18 06:03:00,64.0,62.0,-100.00,SSE,147,2.0,4.0,93,0.00,,,0.00,0.000000,,2013-05-18 10:03:00,
2013-05-18 06:12:00,64.0,62.0,-100.00,SSE,147,2.0,4.0,93,0.00,,,0.00,0.000000,,2013-05-18 10:12:00,
2013-05-18 06:33:00,65.0,64.0,-100.00,SE,138,2.0,4.0,98,0.00,,,0.00,3.000000,,2013-05-18 10:33:00,
2013-05-18 06:42:00,65.0,64.0,-100.00,SE,138,2.0,4.0,98,0.00,,,0.00,3.000000,,2013-05-18 10:42:00,
2013-05-18 06:53:00,65.0,64.0,-100.00,SE,138,2.0,4.0,98,0.00,,,0.00,3.000000,,2013-05-18 10:53:00,
2013-05-18 07:03:00,65.0,64.0,-100.00,SE,138,2.0,4.0,98,0.00,,,0.00,3.000000,,2013-05-18 11:03:00,
2013-05-18 07:12:00,65.0,64.0,-100.00,SE,138,2.0,4.0,98,0.00,,,0.00,3.000000,,2013-05-18 11:12:00,
2013-05-18 07:42:00,67.0,67.0,-100.00,South,172,4.0,6.0,99,0.00,,,0.00,54.000000,,2013-05-18 11:42:00,
2013-05-18 07:52:00,67.0,67.0,-100.00,South,172,4.0,6.0,99,0.00,,,0.00,54.000000,,2013-05-18 11:52:00,
2013-05-18 08:02:00,67.0,67.0,-100.00,South,172,4.0,6.0,99,0.00,,,0.00,54.000000,,2013-05-18 12:02:00,
2013-05-18 08:12:00,67.0,67.0,-100.00,South,172,4.0,6.0,99,0.00,,,0.00,54.000000,,2013-05-18 12:12:00,
2013-05-18 08:42:00,73.0,70.0,-100.00,South,191,4.0,7.0,89,0.00,,,0.00,206.000000,,2013-05-18 12:42:00,
2013-05-18 08:52:00,73.0,70.0,-100.00,South,191,4.0,7.0,89,0.00,,,0.00,206.000000,,2013-05-18 12:52:00,
2013-05-18 09:01:00,73.0,70.0,-100.00,South,191,4.0,7.0,89,0.00,,,0.00,206.000000,,2013-05-18 13:01:00,
2013-05-18 09:12:00,73.0,70.0,-100.00,South,191,4.0,7.0,89,0.00,,,0.00,206.000000,,2013-05-18 13:12:00,
2013-05-18 09:43:00,78.0,70.0,-100.00,SW,218,4.0,10.0,77,0.00,,,0.00,429.000000,,2013-05-18 13:43:00,
2013-05-18 09:53:00,78.0,70.0,-100.00,SW,218,4.0,10.0,77,0.00,,,0.00,429.000000,,2013-05-18 13:53:00,
2013-05-18 10:04:00,78.0,70.0,-100.00,SW,218,4.0,10.0,77,0.00,,,0.00,429.000000,,2013-05-18 14:04:00,
2013-05-18 10:12:00,78.0,70.0,-100.00,SW,218,4.0,10.0,77,0.00,,,0.00,429.000000,,2013-05-18 14:12:00,
2013-05-18 10:42:00,78.0,69.0,-100.00,SW,221,5.0,11.0,73,0.00,,,0.00,345.000000,,2013-05-18 14:42:00,
2013-05-18 10:54:00,78.0,69.0,-100.00,SW,221,5.0,11.0,73,0.00,,,0.00,345.000000,,2013-05-18 14:54:00,
2013-05-18 11:03:00,78.0,69.0,-100.00,SW,221,5.0,11.0,73,0.00,,,0.00,345.000000,,2013-05-18 15:03:00,
2013-05-18 11:13:00,78.0,69.0,-100.00,SW,221,5.0,11.0,73,0.00,,,0.00,345.000000,,2013-05-18 15:13:00,
2013-05-18 11:43:00,80.0,68.0,-100.00,South,171,6.0,12.0,67,0.00,,,0.00,605.000000,,2013-05-18 15:43:00,
2013-05-18 11:54:00,80.0,68.0,-100.00,South,171,6.0,12.0,67,0.00,,,0.00,605.000000,,2013-05-18 15:54:00,
2013-05-18 12:03:00,80.0,68.0,-100.00,South,171,6.0,12.0,67,0.00,,,0.00,605.000000,,2013-05-18 16:03:00,
2013-05-18 12:13:00,80.0,68.0,-100.00,South,171,6.0,12.0,67,0.00,,,0.00,605.000000,,2013-05-18 16:13:00,
2013-05-18 12:42:00,81.0,68.0,-100.00,South,190,8.0,13.0,64,0.00,,,0.00,716.000000,,2013-05-18 16:42:00,
2013-05-18 12:52:00,81.0,68.0,-100.00,South,190,8.0,13.0,64,0.00,,,0.00,716.000000,,2013-05-18 16:52:00,
2013-05-18 13:03:00,81.0,68.0,-100.00,South,190,8.0,13.0,64,0.00,,,0.00,716.000000,,2013-05-18 17:03:00,
2013-05-18 13:12:00,81.0,68.0,-100.00,South,190,8.0,13.0,64,0.00,,,0.00,716.000000,,2013-05-18 17:12:00,
2013-05-18 13:42:00,80.0,67.0,-100.00,SSE,165,8.0,15.0,64,0.00,,,0.00,666.000000,,2013-05-18 17:42:00,
2013-05-18 13:52:00,80.0,67.0,-100.00,SSE,165,8.0,15.0,64,0.00,,,0.00,666.000000,,2013-05-18 17:52:00,
2013-05-18 14:01:00,80.0,67.0,-100.00,SSE,165,8.0,15.0,64,0.00,,,0.00,666.000000,,2013-05-18 18:01:00,
2013-05-18 14:12:00,80.0,67.0,-100.00,SSE,165,8.0,15.0,64,0.00,,,0.00,666.000000,,2013-05-18 18:12:00,
2013-05-18 14:42:00,80.0,67.0,-100.00,South,182,6.0,13.0,64,0.00,,,0.00,647.000000,,2013-05-18 18:42:00,
2013-05-18 14:52:00,80.0,67.0,-100.00,South,182,6.0,13.0,64,0.00,,,0.00,647.000000,,2013-05-18 18:52:00,
2013-05-18 15:02:00,80.0,67.0,-100.00,South,182,6.0,13.0,64,0.00,,,0.00,647.000000,,2013-05-18 19:02:00,
2013-05-18 15:12:00,80.0,67.0,-100.00,South,182,6.0,13.0,64,0.00,,,0.00,647.000000,,2013-05-18 19:12:00,
2013-05-18 15:32:00,81.0,68.0,-100.00,South,185,7.0,15.0,65,0.00,,,0.00,655.000000,,2013-05-18 19:32:00,
2013-05-18 15:42:00,81.0,68.0,-100.00,South,185,7.0,15.0,65,0.00,,,0.00,655.000000,,2013-05-18 19:42:00,
2013-05-18 15:52:00,81.0,68.0,-100.00,South,185,7.0,15.0,65,0.00,,,0.00,655.000000,,2013-05-18 19:52:00,
2013-05-18 16:02:00,81.0,68.0,-100.00,South,185,7.0,15.0,65,0.00,,,0.00,655.000000,,2013-05-18 20:02:00,
2013-05-18 16:11:00,81.0,68.0,-100.00,South,185,7.0,15.0,65,0.00,,,0.00,655.000000,,2013-05-18 20:11:00,
2013-05-18 16:42:00,81.0,65.0,-100.00,South,176,6.0,14.0,59,0.00,,,0.00,601.000000,,2013-05-18 20:42:00,
2013-05-18 16:52:00,81.0,65.0,-100.00,South,176,6.0,14.0,59,0.00,,,0.00,601.000000,,2013-05-18 20:52:00,
2013-05-18 17:01:00,81.0,65.0,-100.00,South,176,6.0,14.0,59,0.00,,,0.00,601.000000,,2013-05-18 21:01:00,
2013-05-18 17:12:00,81.0,65.0,-100.00,South,176,6.0,14.0,59,0.00,,,0.00,601.000000,,2013-05-18 21:12:00,
2013-05-18 17:44:00,77.0,63.0,-100.00,South,176,7.0,15.0,62,0.00,,,0.00,351.000000,,2013-05-18 21:44:00,
2013-05-18 17:53:00,77.0,63.0,-100.00,South,176,7.0,15.0,62,0.00,,,0.00,351.000000,,2013-05-18 21:53:00,
2013-05-18 18:03:00,77.0,63.0,-100.00,South,176,7.0,15.0,62,0.00,,,0.00,351.000000,,2013-05-18 22:03:00,
2013-05-18 18:13:00,77.0,63.0,-100.00,South,176,7.0,15.0,62,0.00,,,0.00,351.000000,,2013-05-18 22:13:00,
2013-05-18 18:42:00,76.0,66.0,-100.00,South,172,5.0,14.0,71,0.00,,,0.00,200.000000,,2013-05-18 22:42:00,
2013-05-18 18:53:00,76.0,66.0,-100.00,South,172,5.0,14.0,71,0.00,,,0.00,200.000000,,2013-05-18 22:53:00,
2013-05-18 19:02:00,76.0,66.0,-100.00,South,172,5.0,14.0,71,0.00,,,0.00,200.000000,,2013-05-18 23:02:00,
2013-05-18 19:12:00,76.0,66.0,-100.00,South,172,5.0,14.0,71,0.00,,,0.00,200.000000,,2013-05-18 23:12:00,
2013-05-18 19:42:00,74.0,65.0,-100.00,South,175,5.0,12.0,74,0.00,,,0.00,69.000000,,2013-05-18 23:42:00,
2013-05-18 19:53:00,74.0,65.0,-100.00,South,175,5.0,12.0,74,0.00,,,0.00,69.000000,,2013-05-18 23:53:00,
2013-05-18 20:02:00,74.0,65.0,-100.00,South,175,5.0,12.0,74,0.00,,,0.00,69.000000,,2013-05-19 00:02:00,
2013-05-18 20:12:00,74.0,65.0,-100.00,South,175,5.0,12.0,74,0.00,,,0.00,69.000000,,2013-05-19 00:12:00,
2013-05-18 20:42:00,72.0,65.0,-100.00,South,178,3.0,9.0,78,0.00,,,0.00,17.000000,,2013-05-19 00:42:00,
2013-05-18 20:52:00,72.0,65.0,-100.00,South,178,3.0,9.0,78,0.00,,,0.00,17.000000,,2013-05-19 00:52:00,
2013-05-18 21:01:00,72.0,65.0,-100.00,South,178,3.0,9.0,78,0.00,,,0.00,17.000000,,2013-05-19 01:01:00,
2013-05-18 21:11:00,72.0,65.0,-100.00,South,178,3.0,9.0,78,0.00,,,0.00,17.000000,,2013-05-19 01:11:00,
2013-05-18 21:42:00,70.0,66.0,-100.00,SE,138,1.0,6.0,88,0.00,,,0.00,0.000000,,2013-05-19 01:42:00,
2013-05-18 21:52:00,70.0,66.0,-100.00,SE,138,1.0,6.0,88,0.00,,,0.00,0.000000,,2013-05-19 01:52:00,
2013-05-18 22:02:00,70.0,66.0,-100.00,SE,138,1.0,6.0,88,0.00,,,0.00,0.000000,,2013-05-19 02:02:00,
2013-05-18 22:11:00,70.0,66.0,-100.00,SE,138,1.0,6.0,88,0.00,,,0.00,0.000000,,2013-05-19 02:11:00,
2013-05-18 22:32:00,68.0,66.0,-100.00,SE,136,2.0,4.0,94,0.00,,,0.00,0.000000,,2013-05-19 02:32:00,
2013-05-18 22:42:00,68.0,66.0,-100.00,SE,136,2.0,4.0,94,0.00,,,0.00,0.000000,,2013-05-19 02:42:00,
2013-05-18 22:52:00,68.0,66.0,-100.00,SE,136,2.0,4.0,94,0.00,,,0.00,0.000000,,2013-05-19 02:52:00,
2013-05-18 23:01:00,68.0,66.0,-100.00,SE,136,2.0,4.0,94,0.00,,,0.00,0.000000,,2013-05-19 03:01:00,
2013-05-18 23:11:00,68.0,66.0,-100.00,SE,136,2.0,4.0,94,0.00,,,0.00,0.000000,,2013-05-19 03:11:00,
2013-05-18 23:43:00,67.0,66.0,-100.00,SE,133,0.0,4.0,96,0.00,,,0.00,0.000000,,2013-05-19 03:43:00,
2013-05-18 23:53:00,67.0,66.0,-100.00,SE,133,0.0,4.0,96,0.00,,,0.00,0.000000,,2013-05-19 03:53:00,